sensor_id;sensor_type;location;lat;lon;timestamp;temperature;humidity
40077;DHT22;25777;47.824;18.982;2022-10-16T00:01:24;12.60;99.90
40077;DHT22;25777;47.824;18.982;2022-10-16T00:03:50;12.60;99.90
40077;DHT22;25777;47.824;18.982;2022-10-16T00:06:19;12.60;99.90
40077;DHT22;25777;47.824;18.982;2022-10-16T00:08:46;12.60;99.90
40077;DHT22;25777;47.824;18.982;2022-10-16T00:11:18;12.60;99.90
40077;DHT22;25777;47.824;18.982;2022-10-16T00:13:46;12.60;99.90
40077;DHT22;25777;47.824;18.982;2022-10-16T00:16:13;12.60;99.90
40077;DHT22;25777;47.824;18.982;2022-10-16T00:18:39;12.60;99.90
40077;DHT22;25777;47.824;18.982;2022-10-16T00:21:15;12.60;99.90
40077;DHT22;25777;47.824;18.982;2022-10-16T00:23:41;12.60;99.90
40077;DHT22;25777;47.824;18.982;2022-10-16T00:26:10;12.60;99.90
40077;DHT22;25777;47.824;18.982;2022-10-16T00:28:36;12.60;99.90
40077;DHT22;25777;47.824;18.982;2022-10-16T00:31:04;12.60;99.90
40077;DHT22;25777;47.824;18.982;2022-10-16T00:33:30;12.50;99.90
40077;DHT22;25777;47.824;18.982;2022-10-16T00:35:58;12.50;99.90
40077;DHT22;25777;47.824;18.982;2022-10-16T00:38:24;12.50;99.90
40077;DHT22;25777;47.824;18.982;2022-10-16T00:40:50;12.50;99.90
40077;DHT22;25777;47.824;18.982;2022-10-16T00:46:03;12.50;99.90
40077;DHT22;25777;47.824;18.982;2022-10-16T00:48:30;12.50;99.90
40077;DHT22;25777;47.824;18.982;2022-10-16T00:50:57;12.50;99.90
40077;DHT22;25777;47.824;18.982;2022-10-16T00:53:24;12.50;99.90
40077;DHT22;25777;47.824;18.982;2022-10-16T00:55:51;12.50;99.90
40077;DHT22;25777;47.824;18.982;2022-10-16T00:58:17;12.50;99.90
40077;DHT22;25777;47.824;18.982;2022-10-16T01:00:43;12.50;99.90
40077;DHT22;25777;47.824;18.982;2022-10-16T01:03:30;12.50;99.90
40077;DHT22;25777;47.824;18.982;2022-10-16T01:06:08;12.50;99.90
40077;DHT22;25777;47.824;18.982;2022-10-16T01:11:48;12.50;99.90
40077;DHT22;25777;47.824;18.982;2022-10-16T01:17:12;12.50;99.90
40077;DHT22;25777;47.824;18.982;2022-10-16T01:22:08;12.40;99.90
40077;DHT22;25777;47.824;18.982;2022-10-16T01:24:45;12.40;99.90
40077;DHT22;25777;47.824;18.982;2022-10-16T01:27:26;12.30;99.90
40077;DHT22;25777;47.824;18.982;2022-10-16T01:30:07;12.30;99.90
40077;DHT22;25777;47.824;18.982;2022-10-16T01:32:52;12.30;99.90
40077;DHT22;25777;47.824;18.982;2022-10-16T01:35:34;12.30;99.90
40077;DHT22;25777;47.824;18.982;2022-10-16T01:38:28;12.20;99.90
40077;DHT22;25777;47.824;18.982;2022-10-16T01:40:57;12.20;99.90
40077;DHT22;25777;47.824;18.982;2022-10-16T01:43:46;12.10;99.90
40077;DHT22;25777;47.824;18.982;2022-10-16T01:46:16;12.10;99.90
40077;DHT22;25777;47.824;18.982;2022-10-16T01:48:43;12.00;99.90
40077;DHT22;25777;47.824;18.982;2022-10-16T01:51:12;12.00;99.90
40077;DHT22;25777;47.824;18.982;2022-10-16T01:53:45;12.00;99.90
40077;DHT22;25777;47.824;18.982;2022-10-16T01:56:13;12.00;99.90
40077;DHT22;25777;47.824;18.982;2022-10-16T01:59:01;12.00;99.90
40077;DHT22;25777;47.824;18.982;2022-10-16T02:01:30;12.00;99.90
40077;DHT22;25777;47.824;18.982;2022-10-16T02:03:58;12.00;99.90
40077;DHT22;25777;47.824;18.982;2022-10-16T02:06:25;12.00;99.90
40077;DHT22;25777;47.824;18.982;2022-10-16T02:08:51;12.00;99.90
40077;DHT22;25777;47.824;18.982;2022-10-16T02:11:17;12.00;99.90
40077;DHT22;25777;47.824;18.982;2022-10-16T02:13:57;12.00;99.90
40077;DHT22;25777;47.824;18.982;2022-10-16T02:16:34;12.00;99.90
40077;DHT22;25777;47.824;18.982;2022-10-16T02:19:00;12.00;99.90
40077;DHT22;25777;47.824;18.982;2022-10-16T02:21:29;11.90;99.90
40077;DHT22;25777;47.824;18.982;2022-10-16T02:24:08;11.90;99.90
40077;DHT22;25777;47.824;18.982;2022-10-16T02:29:08;11.90;99.90
40077;DHT22;25777;47.824;18.982;2022-10-16T02:31:40;11.80;99.90
40077;DHT22;25777;47.824;18.982;2022-10-16T02:34:08;11.90;99.90
40077;DHT22;25777;47.824;18.982;2022-10-16T02:36:36;11.80;99.90
40077;DHT22;25777;47.824;18.982;2022-10-16T02:39:03;11.80;99.90
40077;DHT22;25777;47.824;18.982;2022-10-16T02:41:30;11.70;99.90
40077;DHT22;25777;47.824;18.982;2022-10-16T02:43:57;11.70;99.90
40077;DHT22;25777;47.824;18.982;2022-10-16T02:46:22;11.60;99.90
40077;DHT22;25777;47.824;18.982;2022-10-16T02:48:48;11.50;99.90
40077;DHT22;25777;47.824;18.982;2022-10-16T02:51:14;11.50;99.90
40077;DHT22;25777;47.824;18.982;2022-10-16T02:53:40;11.40;99.90
40077;DHT22;25777;47.824;18.982;2022-10-16T02:56:06;11.30;99.90
40077;DHT22;25777;47.824;18.982;2022-10-16T02:58:31;11.20;99.90
40077;DHT22;25777;47.824;18.982;2022-10-16T03:00:57;11.10;99.90
40077;DHT22;25777;47.824;18.982;2022-10-16T03:03:23;11.10;99.90
40077;DHT22;25777;47.824;18.982;2022-10-16T03:05:49;11.10;99.90
40077;DHT22;25777;47.824;18.982;2022-10-16T03:08:14;11.00;99.90
40077;DHT22;25777;47.824;18.982;2022-10-16T03:10:41;11.00;99.90
40077;DHT22;25777;47.824;18.982;2022-10-16T03:13:06;10.90;99.90
40077;DHT22;25777;47.824;18.982;2022-10-16T03:15:32;10.90;99.90
40077;DHT22;25777;47.824;18.982;2022-10-16T03:17:58;10.80;99.90
40077;DHT22;25777;47.824;18.982;2022-10-16T03:20:24;10.70;99.90
40077;DHT22;25777;47.824;18.982;2022-10-16T03:22:50;10.70;99.90
40077;DHT22;25777;47.824;18.982;2022-10-16T03:25:16;10.60;99.90
40077;DHT22;25777;47.824;18.982;2022-10-16T03:27:42;10.50;99.90
40077;DHT22;25777;47.824;18.982;2022-10-16T03:30:08;10.40;99.90
40077;DHT22;25777;47.824;18.982;2022-10-16T03:32:35;10.30;99.90
40077;DHT22;25777;47.824;18.982;2022-10-16T03:35:00;10.30;99.90
40077;DHT22;25777;47.824;18.982;2022-10-16T03:37:26;10.20;99.90
40077;DHT22;25777;47.824;18.982;2022-10-16T03:39:52;10.20;99.90
40077;DHT22;25777;47.824;18.982;2022-10-16T03:42:18;10.10;99.90
40077;DHT22;25777;47.824;18.982;2022-10-16T03:44:44;10.10;99.90
40077;DHT22;25777;47.824;18.982;2022-10-16T03:47:10;10.10;99.90
40077;DHT22;25777;47.824;18.982;2022-10-16T03:49:35;10.10;99.90
40077;DHT22;25777;47.824;18.982;2022-10-16T03:52:01;10.00;99.90
40077;DHT22;25777;47.824;18.982;2022-10-16T03:54:27;10.00;99.90
40077;DHT22;25777;47.824;18.982;2022-10-16T03:56:52;10.00;99.90
40077;DHT22;25777;47.824;18.982;2022-10-16T03:59:18;9.90;99.90
40077;DHT22;25777;47.824;18.982;2022-10-16T04:01:45;9.90;99.90
40077;DHT22;25777;47.824;18.982;2022-10-16T04:04:11;9.90;99.90
40077;DHT22;25777;47.824;18.982;2022-10-16T04:06:36;9.90;99.90
40077;DHT22;25777;47.824;18.982;2022-10-16T04:09:02;9.80;99.90
40077;DHT22;25777;47.824;18.982;2022-10-16T04:11:28;9.70;99.90
40077;DHT22;25777;47.824;18.982;2022-10-16T04:13:54;9.50;99.90
40077;DHT22;25777;47.824;18.982;2022-10-16T04:16:20;9.50;99.90
40077;DHT22;25777;47.824;18.982;2022-10-16T04:18:45;9.50;99.90
40077;DHT22;25777;47.824;18.982;2022-10-16T04:21:11;9.40;99.90
40077;DHT22;25777;47.824;18.982;2022-10-16T04:23:37;9.40;99.90
40077;DHT22;25777;47.824;18.982;2022-10-16T04:26:03;9.40;99.90
40077;DHT22;25777;47.824;18.982;2022-10-16T04:28:29;9.50;99.90
40077;DHT22;25777;47.824;18.982;2022-10-16T04:30:54;9.40;99.90
40077;DHT22;25777;47.824;18.982;2022-10-16T04:33:20;9.40;99.90
40077;DHT22;25777;47.824;18.982;2022-10-16T04:35:46;9.30;99.90
40077;DHT22;25777;47.824;18.982;2022-10-16T04:38:11;9.30;99.90
40077;DHT22;25777;47.824;18.982;2022-10-16T04:40:37;9.20;99.90
40077;DHT22;25777;47.824;18.982;2022-10-16T04:43:04;9.30;99.90
40077;DHT22;25777;47.824;18.982;2022-10-16T04:45:30;9.20;99.90
40077;DHT22;25777;47.824;18.982;2022-10-16T04:48:00;9.20;99.90
40077;DHT22;25777;47.824;18.982;2022-10-16T04:50:25;9.20;99.90
40077;DHT22;25777;47.824;18.982;2022-10-16T04:52:51;9.10;99.90
40077;DHT22;25777;47.824;18.982;2022-10-16T04:55:17;9.10;99.90
40077;DHT22;25777;47.824;18.982;2022-10-16T04:57:43;9.00;99.90
40077;DHT22;25777;47.824;18.982;2022-10-16T05:00:09;9.00;99.90
40077;DHT22;25777;47.824;18.982;2022-10-16T05:02:35;9.00;99.90
40077;DHT22;25777;47.824;18.982;2022-10-16T05:05:01;8.90;99.90
40077;DHT22;25777;47.824;18.982;2022-10-16T05:07:26;8.90;99.90
40077;DHT22;25777;47.824;18.982;2022-10-16T05:09:52;8.80;99.90
40077;DHT22;25777;47.824;18.982;2022-10-16T05:12:18;8.90;99.90
40077;DHT22;25777;47.824;18.982;2022-10-16T05:14:44;8.90;99.90
40077;DHT22;25777;47.824;18.982;2022-10-16T05:17:10;8.90;99.90
40077;DHT22;25777;47.824;18.982;2022-10-16T05:19:35;9.00;99.90
40077;DHT22;25777;47.824;18.982;2022-10-16T05:22:01;8.90;99.90
40077;DHT22;25777;47.824;18.982;2022-10-16T05:24:27;8.90;99.90
40077;DHT22;25777;47.824;18.982;2022-10-16T05:26:54;8.80;99.90
40077;DHT22;25777;47.824;18.982;2022-10-16T05:29:20;8.90;99.90
40077;DHT22;25777;47.824;18.982;2022-10-16T05:31:46;9.00;99.90
40077;DHT22;25777;47.824;18.982;2022-10-16T05:34:11;9.00;99.90
40077;DHT22;25777;47.824;18.982;2022-10-16T05:36:37;9.00;99.90
40077;DHT22;25777;47.824;18.982;2022-10-16T05:39:03;9.00;99.90
40077;DHT22;25777;47.824;18.982;2022-10-16T05:41:29;9.50;99.90
40077;DHT22;25777;47.824;18.982;2022-10-16T05:43:55;9.60;99.90
40077;DHT22;25777;47.824;18.982;2022-10-16T05:46:21;9.70;99.90
40077;DHT22;25777;47.824;18.982;2022-10-16T05:48:47;9.50;99.90
40077;DHT22;25777;47.824;18.982;2022-10-16T05:51:14;9.90;99.90
40077;DHT22;25777;47.824;18.982;2022-10-16T05:53:41;9.80;99.90
40077;DHT22;25777;47.824;18.982;2022-10-16T05:56:09;10.00;99.90
40077;DHT22;25777;47.824;18.982;2022-10-16T05:58:36;10.30;99.90
40077;DHT22;25777;47.824;18.982;2022-10-16T06:01:06;10.50;99.90
40077;DHT22;25777;47.824;18.982;2022-10-16T06:03:33;10.40;99.90
40077;DHT22;25777;47.824;18.982;2022-10-16T06:05:59;10.60;99.90
40077;DHT22;25777;47.824;18.982;2022-10-16T06:08:32;10.80;99.90
40077;DHT22;25777;47.824;18.982;2022-10-16T06:11:06;10.90;99.90
40077;DHT22;25777;47.824;18.982;2022-10-16T06:13:32;10.90;99.90
40077;DHT22;25777;47.824;18.982;2022-10-16T06:15:59;10.90;99.90
40077;DHT22;25777;47.824;18.982;2022-10-16T06:18:27;10.90;99.90
40077;DHT22;25777;47.824;18.982;2022-10-16T06:20:53;11.00;99.90
40077;DHT22;25777;47.824;18.982;2022-10-16T06:23:19;11.00;99.90
40077;DHT22;25777;47.824;18.982;2022-10-16T06:25:45;11.10;99.90
40077;DHT22;25777;47.824;18.982;2022-10-16T06:28:11;11.20;99.90
40077;DHT22;25777;47.824;18.982;2022-10-16T06:30:38;11.20;99.90
40077;DHT22;25777;47.824;18.982;2022-10-16T06:33:04;11.20;99.90
40077;DHT22;25777;47.824;18.982;2022-10-16T06:35:30;11.30;99.90
40077;DHT22;25777;47.824;18.982;2022-10-16T06:37:57;11.30;99.90
40077;DHT22;25777;47.824;18.982;2022-10-16T06:40:23;11.40;99.90
40077;DHT22;25777;47.824;18.982;2022-10-16T06:42:49;11.60;99.90
40077;DHT22;25777;47.824;18.982;2022-10-16T06:45:17;11.60;99.90
40077;DHT22;25777;47.824;18.982;2022-10-16T06:47:42;11.70;99.90
40077;DHT22;25777;47.824;18.982;2022-10-16T06:50:08;11.80;99.90
40077;DHT22;25777;47.824;18.982;2022-10-16T06:52:34;11.80;99.90
40077;DHT22;25777;47.824;18.982;2022-10-16T06:55:00;11.90;99.90
40077;DHT22;25777;47.824;18.982;2022-10-16T06:57:26;12.00;99.90
40077;DHT22;25777;47.824;18.982;2022-10-16T06:59:52;12.10;99.90
40077;DHT22;25777;47.824;18.982;2022-10-16T07:02:18;12.20;99.90
40077;DHT22;25777;47.824;18.982;2022-10-16T07:04:43;12.20;99.90
40077;DHT22;25777;47.824;18.982;2022-10-16T07:07:09;12.20;99.90
40077;DHT22;25777;47.824;18.982;2022-10-16T07:09:35;12.30;99.90
40077;DHT22;25777;47.824;18.982;2022-10-16T07:12:01;12.40;99.90
40077;DHT22;25777;47.824;18.982;2022-10-16T07:14:27;12.50;99.90
40077;DHT22;25777;47.824;18.982;2022-10-16T07:16:53;12.60;99.90
40077;DHT22;25777;47.824;18.982;2022-10-16T07:19:18;12.70;99.90
40077;DHT22;25777;47.824;18.982;2022-10-16T07:21:44;12.80;99.90
40077;DHT22;25777;47.824;18.982;2022-10-16T07:24:15;13.00;99.90
40077;DHT22;25777;47.824;18.982;2022-10-16T07:26:42;13.10;99.90
40077;DHT22;25777;47.824;18.982;2022-10-16T07:29:13;13.20;99.90
40077;DHT22;25777;47.824;18.982;2022-10-16T07:31:41;13.10;99.90
40077;DHT22;25777;47.824;18.982;2022-10-16T07:34:07;13.20;99.90
40077;DHT22;25777;47.824;18.982;2022-10-16T07:36:33;13.30;99.90
40077;DHT22;25777;47.824;18.982;2022-10-16T07:38:58;13.50;99.90
40077;DHT22;25777;47.824;18.982;2022-10-16T07:41:24;13.60;99.90
40077;DHT22;25777;47.824;18.982;2022-10-16T07:43:52;13.70;99.90
40077;DHT22;25777;47.824;18.982;2022-10-16T07:46:19;13.70;99.90
40077;DHT22;25777;47.824;18.982;2022-10-16T07:48:45;13.80;99.90
40077;DHT22;25777;47.824;18.982;2022-10-16T07:51:18;13.70;99.90
40077;DHT22;25777;47.824;18.982;2022-10-16T07:53:44;13.80;99.90
40077;DHT22;25777;47.824;18.982;2022-10-16T07:56:10;13.90;99.90
40077;DHT22;25777;47.824;18.982;2022-10-16T07:58:37;14.20;99.90
40077;DHT22;25777;47.824;18.982;2022-10-16T08:01:05;14.40;99.90
40077;DHT22;25777;47.824;18.982;2022-10-16T08:03:31;14.40;99.90
40077;DHT22;25777;47.824;18.982;2022-10-16T08:05:57;14.50;99.90
40077;DHT22;25777;47.824;18.982;2022-10-16T08:08:23;14.50;99.90
40077;DHT22;25777;47.824;18.982;2022-10-16T08:10:49;14.50;99.90
40077;DHT22;25777;47.824;18.982;2022-10-16T08:13:15;14.50;99.90
40077;DHT22;25777;47.824;18.982;2022-10-16T08:15:42;14.70;99.90
40077;DHT22;25777;47.824;18.982;2022-10-16T08:18:09;14.80;99.90
40077;DHT22;25777;47.824;18.982;2022-10-16T08:20:36;14.80;99.90
40077;DHT22;25777;47.824;18.982;2022-10-16T08:23:02;14.90;99.90
40077;DHT22;25777;47.824;18.982;2022-10-16T08:25:28;14.90;99.90
40077;DHT22;25777;47.824;18.982;2022-10-16T08:27:54;15.20;99.90
40077;DHT22;25777;47.824;18.982;2022-10-16T08:30:21;15.20;99.90
40077;DHT22;25777;47.824;18.982;2022-10-16T08:32:47;15.40;99.90
40077;DHT22;25777;47.824;18.982;2022-10-16T08:35:14;15.50;99.90
40077;DHT22;25777;47.824;18.982;2022-10-16T08:37:40;15.60;99.90
40077;DHT22;25777;47.824;18.982;2022-10-16T08:40:15;15.50;99.90
40077;DHT22;25777;47.824;18.982;2022-10-16T08:51:06;16.00;99.90
40077;DHT22;25777;47.824;18.982;2022-10-16T08:53:53;15.80;99.90
40077;DHT22;25777;47.824;18.982;2022-10-16T08:56:20;15.90;99.90
40077;DHT22;25777;47.824;18.982;2022-10-16T08:58:46;16.10;99.90
40077;DHT22;25777;47.824;18.982;2022-10-16T09:01:16;16.00;99.90
40077;DHT22;25777;47.824;18.982;2022-10-16T09:09:36;16.00;99.90
40077;DHT22;25777;47.824;18.982;2022-10-16T09:12:22;16.30;99.90
40077;DHT22;25777;47.824;18.982;2022-10-16T09:20:32;17.60;99.90
40077;DHT22;25777;47.824;18.982;2022-10-16T09:23:16;17.80;99.90
40077;DHT22;25777;47.824;18.982;2022-10-16T09:25:45;17.60;99.90
40077;DHT22;25777;47.824;18.982;2022-10-16T09:28:13;17.10;98.60
40077;DHT22;25777;47.824;18.982;2022-10-16T09:30:39;16.40;99.10
40077;DHT22;25777;47.824;18.982;2022-10-16T09:33:06;16.20;99.90
40077;DHT22;25777;47.824;18.982;2022-10-16T09:35:36;16.60;99.90
40077;DHT22;25777;47.824;18.982;2022-10-16T09:38:03;16.90;99.90
40077;DHT22;25777;47.824;18.982;2022-10-16T09:40:34;16.80;99.90
40077;DHT22;25777;47.824;18.982;2022-10-16T09:45:41;17.00;99.90
40077;DHT22;25777;47.824;18.982;2022-10-16T09:48:12;16.90;99.50
40077;DHT22;25777;47.824;18.982;2022-10-16T09:50:38;16.70;99.90
40077;DHT22;25777;47.824;18.982;2022-10-16T09:53:12;16.70;99.90
40077;DHT22;25777;47.824;18.982;2022-10-16T09:55:48;16.70;99.90
40077;DHT22;25777;47.824;18.982;2022-10-16T09:58:16;16.70;99.90
40077;DHT22;25777;47.824;18.982;2022-10-16T10:00:49;16.70;99.90
40077;DHT22;25777;47.824;18.982;2022-10-16T10:03:39;17.00;99.80
40077;DHT22;25777;47.824;18.982;2022-10-16T10:06:21;17.20;99.90
40077;DHT22;25777;47.824;18.982;2022-10-16T10:09:02;17.00;99.90
40077;DHT22;25777;47.824;18.982;2022-10-16T10:11:51;17.60;98.50
40077;DHT22;25777;47.824;18.982;2022-10-16T10:14:37;18.30;99.90
40077;DHT22;25777;47.824;18.982;2022-10-16T10:17:26;18.60;97.40
40077;DHT22;25777;47.824;18.982;2022-10-16T10:19:58;18.70;96.70
40077;DHT22;25777;47.824;18.982;2022-10-16T10:45:39;17.90;97.20
40077;DHT22;25777;47.824;18.982;2022-10-16T10:51:01;18.10;95.10
40077;DHT22;25777;47.824;18.982;2022-10-16T10:59:29;18.20;95.70
40077;DHT22;25777;47.824;18.982;2022-10-16T11:02:01;18.30;95.30
40077;DHT22;25777;47.824;18.982;2022-10-16T11:07:02;18.40;94.80
40077;DHT22;25777;47.824;18.982;2022-10-16T11:09:39;18.70;93.70
40077;DHT22;25777;47.824;18.982;2022-10-16T11:12:29;19.00;94.60
40077;DHT22;25777;47.824;18.982;2022-10-16T11:15:20;19.20;93.80
40077;DHT22;25777;47.824;18.982;2022-10-16T11:18:18;18.80;93.50
40077;DHT22;25777;47.824;18.982;2022-10-16T11:21:07;19.00;93.50
40077;DHT22;25777;47.824;18.982;2022-10-16T11:23:46;19.20;93.40
40077;DHT22;25777;47.824;18.982;2022-10-16T11:26:20;19.60;92.10
40077;DHT22;25777;47.824;18.982;2022-10-16T11:28:53;19.50;92.40
40077;DHT22;25777;47.824;18.982;2022-10-16T11:31:40;19.30;92.00
40077;DHT22;25777;47.824;18.982;2022-10-16T11:34:34;19.30;92.40
40077;DHT22;25777;47.824;18.982;2022-10-16T11:37:01;19.40;93.20
40077;DHT22;25777;47.824;18.982;2022-10-16T11:39:30;19.30;92.80
40077;DHT22;25777;47.824;18.982;2022-10-16T11:42:09;19.20;93.90
40077;DHT22;25777;47.824;18.982;2022-10-16T11:44:57;19.10;92.50
40077;DHT22;25777;47.824;18.982;2022-10-16T11:47:36;19.00;93.50
40077;DHT22;25777;47.824;18.982;2022-10-16T11:50:42;19.00;92.90
40077;DHT22;25777;47.824;18.982;2022-10-16T11:56:15;19.20;92.50
40077;DHT22;25777;47.824;18.982;2022-10-16T12:01:26;19.60;93.80
40077;DHT22;25777;47.824;18.982;2022-10-16T12:11:46;19.50;91.30
40077;DHT22;25777;47.824;18.982;2022-10-16T12:16:58;19.60;90.00
40077;DHT22;25777;47.824;18.982;2022-10-16T12:19:28;19.50;88.20
40077;DHT22;25777;47.824;18.982;2022-10-16T12:21:56;19.40;89.30
40077;DHT22;25777;47.824;18.982;2022-10-16T12:24:37;19.40;87.90
40077;DHT22;25777;47.824;18.982;2022-10-16T12:27:06;19.30;89.10
40077;DHT22;25777;47.824;18.982;2022-10-16T12:29:39;19.40;89.00
40077;DHT22;25777;47.824;18.982;2022-10-16T12:32:28;19.30;87.70
40077;DHT22;25777;47.824;18.982;2022-10-16T12:34:55;19.40;88.30
40077;DHT22;25777;47.824;18.982;2022-10-16T12:37:36;19.40;88.00
40077;DHT22;25777;47.824;18.982;2022-10-16T12:40:35;19.50;86.90
40077;DHT22;25777;47.824;18.982;2022-10-16T12:43:23;19.30;88.70
40077;DHT22;25777;47.824;18.982;2022-10-16T12:46:04;19.30;87.50
40077;DHT22;25777;47.824;18.982;2022-10-16T12:48:30;19.40;86.60
40077;DHT22;25777;47.824;18.982;2022-10-16T12:50:56;19.30;87.10
40077;DHT22;25777;47.824;18.982;2022-10-16T12:53:24;19.30;87.80
40077;DHT22;25777;47.824;18.982;2022-10-16T12:58:42;19.20;87.60
40077;DHT22;25777;47.824;18.982;2022-10-16T13:01:31;19.40;87.20
40077;DHT22;25777;47.824;18.982;2022-10-16T13:04:55;19.50;85.20
40077;DHT22;25777;47.824;18.982;2022-10-16T13:09:58;19.40;85.20
40077;DHT22;25777;47.824;18.982;2022-10-16T13:15:59;19.80;83.30
40077;DHT22;25777;47.824;18.982;2022-10-16T13:21:26;19.70;85.20
40077;DHT22;25777;47.824;18.982;2022-10-16T13:29:21;19.00;87.60
40077;DHT22;25777;47.824;18.982;2022-10-16T13:31:47;18.90;86.70
40077;DHT22;25777;47.824;18.982;2022-10-16T13:34:17;18.90;87.50
40077;DHT22;25777;47.824;18.982;2022-10-16T13:36:49;18.90;87.10
40077;DHT22;25777;47.824;18.982;2022-10-16T13:39:31;18.80;86.90
40077;DHT22;25777;47.824;18.982;2022-10-16T13:42:03;18.70;89.00
40077;DHT22;25777;47.824;18.982;2022-10-16T13:44:37;18.70;90.90
40077;DHT22;25777;47.824;18.982;2022-10-16T13:47:05;18.70;89.00
40077;DHT22;25777;47.824;18.982;2022-10-16T13:49:31;18.60;90.40
40077;DHT22;25777;47.824;18.982;2022-10-16T13:51:59;18.50;89.70
40077;DHT22;25777;47.824;18.982;2022-10-16T13:54:27;18.80;87.10
40077;DHT22;25777;47.824;18.982;2022-10-16T13:56:54;18.70;89.70
40077;DHT22;25777;47.824;18.982;2022-10-16T13:59:34;18.60;90.30
40077;DHT22;25777;47.824;18.982;2022-10-16T14:02:08;18.30;91.60
40077;DHT22;25777;47.824;18.982;2022-10-16T14:04:40;18.20;91.80
40077;DHT22;25777;47.824;18.982;2022-10-16T14:07:05;18.20;91.40
40077;DHT22;25777;47.824;18.982;2022-10-16T14:09:38;18.20;91.20
40077;DHT22;25777;47.824;18.982;2022-10-16T14:12:09;18.20;92.10
40077;DHT22;25777;47.824;18.982;2022-10-16T14:14:44;18.20;91.60
40077;DHT22;25777;47.824;18.982;2022-10-16T14:17:26;18.30;90.40
40077;DHT22;25777;47.824;18.982;2022-10-16T14:19:55;18.30;91.70
40077;DHT22;25777;47.824;18.982;2022-10-16T14:22:34;18.00;93.40
40077;DHT22;25777;47.824;18.982;2022-10-16T14:25:21;17.70;94.70
40077;DHT22;25777;47.824;18.982;2022-10-16T14:30:28;17.30;96.00
40077;DHT22;25777;47.824;18.982;2022-10-16T14:33:02;17.20;97.40
40077;DHT22;25777;47.824;18.982;2022-10-16T14:35:34;17.10;98.90
40077;DHT22;25777;47.824;18.982;2022-10-16T14:38:02;17.00;99.40
40077;DHT22;25777;47.824;18.982;2022-10-16T14:40:31;16.90;99.90
40077;DHT22;25777;47.824;18.982;2022-10-16T14:42:58;16.80;99.90
40077;DHT22;25777;47.824;18.982;2022-10-16T14:45:29;16.70;99.90
40077;DHT22;25777;47.824;18.982;2022-10-16T14:48:01;16.50;99.90
40077;DHT22;25777;47.824;18.982;2022-10-16T14:50:28;16.40;99.90
40077;DHT22;25777;47.824;18.982;2022-10-16T14:52:54;16.30;99.90
40077;DHT22;25777;47.824;18.982;2022-10-16T14:55:20;16.20;99.90
40077;DHT22;25777;47.824;18.982;2022-10-16T14:57:46;16.10;99.90
40077;DHT22;25777;47.824;18.982;2022-10-16T15:00:19;16.00;99.90
40077;DHT22;25777;47.824;18.982;2022-10-16T15:02:47;15.90;99.90
40077;DHT22;25777;47.824;18.982;2022-10-16T15:05:16;15.80;99.90
40077;DHT22;25777;47.824;18.982;2022-10-16T15:07:42;15.60;99.90
40077;DHT22;25777;47.824;18.982;2022-10-16T15:10:09;15.50;99.90
40077;DHT22;25777;47.824;18.982;2022-10-16T15:12:35;15.40;99.90
40077;DHT22;25777;47.824;18.982;2022-10-16T15:15:01;15.30;99.90
40077;DHT22;25777;47.824;18.982;2022-10-16T15:17:27;15.20;99.90
40077;DHT22;25777;47.824;18.982;2022-10-16T15:19:53;15.10;99.90
40077;DHT22;25777;47.824;18.982;2022-10-16T15:22:19;15.00;99.90
40077;DHT22;25777;47.824;18.982;2022-10-16T15:24:46;14.90;99.90
40077;DHT22;25777;47.824;18.982;2022-10-16T15:27:12;14.80;99.90
40077;DHT22;25777;47.824;18.982;2022-10-16T15:29:37;14.80;99.90
40077;DHT22;25777;47.824;18.982;2022-10-16T15:32:03;14.60;99.90
40077;DHT22;25777;47.824;18.982;2022-10-16T15:34:29;14.60;99.90
40077;DHT22;25777;47.824;18.982;2022-10-16T15:36:55;14.60;99.90
40077;DHT22;25777;47.824;18.982;2022-10-16T15:39:23;14.40;99.90
40077;DHT22;25777;47.824;18.982;2022-10-16T15:41:49;14.30;99.90
40077;DHT22;25777;47.824;18.982;2022-10-16T15:44:19;14.30;99.90
40077;DHT22;25777;47.824;18.982;2022-10-16T15:46:46;14.30;99.90
40077;DHT22;25777;47.824;18.982;2022-10-16T15:49:12;14.20;99.90
40077;DHT22;25777;47.824;18.982;2022-10-16T15:51:40;14.10;99.90
40077;DHT22;25777;47.824;18.982;2022-10-16T15:54:06;14.10;99.90
40077;DHT22;25777;47.824;18.982;2022-10-16T15:56:32;14.00;99.90
40077;DHT22;25777;47.824;18.982;2022-10-16T15:59:00;13.80;99.90
40077;DHT22;25777;47.824;18.982;2022-10-16T16:01:26;13.70;99.90
40077;DHT22;25777;47.824;18.982;2022-10-16T16:03:53;13.60;99.90
40077;DHT22;25777;47.824;18.982;2022-10-16T16:06:19;13.50;99.90
40077;DHT22;25777;47.824;18.982;2022-10-16T16:08:45;13.50;99.90
40077;DHT22;25777;47.824;18.982;2022-10-16T16:11:13;13.60;99.90
40077;DHT22;25777;47.824;18.982;2022-10-16T16:13:39;13.60;99.90
40077;DHT22;25777;47.824;18.982;2022-10-16T16:16:07;13.60;99.90
40077;DHT22;25777;47.824;18.982;2022-10-16T16:18:33;13.50;99.90
40077;DHT22;25777;47.824;18.982;2022-10-16T16:20:59;13.40;99.90
40077;DHT22;25777;47.824;18.982;2022-10-16T16:23:25;13.40;99.90
40077;DHT22;25777;47.824;18.982;2022-10-16T16:28:36;13.20;99.90
40077;DHT22;25777;47.824;18.982;2022-10-16T16:31:03;13.00;99.90
40077;DHT22;25777;47.824;18.982;2022-10-16T16:33:29;13.00;99.90
40077;DHT22;25777;47.824;18.982;2022-10-16T16:35:58;13.00;99.90
40077;DHT22;25777;47.824;18.982;2022-10-16T16:38:24;12.90;99.90
40077;DHT22;25777;47.824;18.982;2022-10-16T16:40:50;12.80;99.90
40077;DHT22;25777;47.824;18.982;2022-10-16T16:43:17;12.80;99.90
40077;DHT22;25777;47.824;18.982;2022-10-16T16:45:44;12.80;99.90
40077;DHT22;25777;47.824;18.982;2022-10-16T16:48:09;12.80;99.90
40077;DHT22;25777;47.824;18.982;2022-10-16T16:50:36;12.70;99.90
40077;DHT22;25777;47.824;18.982;2022-10-16T16:53:02;12.60;99.90
40077;DHT22;25777;47.824;18.982;2022-10-16T16:55:28;12.50;99.90
40077;DHT22;25777;47.824;18.982;2022-10-16T16:57:54;12.50;99.90
40077;DHT22;25777;47.824;18.982;2022-10-16T17:00:19;12.30;99.90
40077;DHT22;25777;47.824;18.982;2022-10-16T17:02:48;12.30;99.90
40077;DHT22;25777;47.824;18.982;2022-10-16T17:05:15;12.30;99.90
40077;DHT22;25777;47.824;18.982;2022-10-16T17:07:41;12.30;99.90
40077;DHT22;25777;47.824;18.982;2022-10-16T17:10:07;12.20;99.90
40077;DHT22;25777;47.824;18.982;2022-10-16T17:12:33;12.10;99.90
40077;DHT22;25777;47.824;18.982;2022-10-16T17:14:59;12.10;99.90
40077;DHT22;25777;47.824;18.982;2022-10-16T17:17:25;12.00;99.90
40077;DHT22;25777;47.824;18.982;2022-10-16T17:19:51;12.00;99.90
40077;DHT22;25777;47.824;18.982;2022-10-16T17:22:18;11.90;99.90